Time;durP1;ratioP1;P1;durP2;ratioP2;P2;SDS_P1;SDS_P2;PMS_P1;PMS_P2;Temp;Humidity;BMP_temperature;BMP_pressure;BME280_temperature;BME280_humidity;BME280_pressure;Samples;Min_cycle;Max_cycle;Signal;HPM_P1;HPM_P2
2021/10/14 00:01:12;;;;;;;6.32;2.83;;;;;;;;;;10462894;28;20079;-90
2021/10/14 00:06:13;;;;;;;3.23;2.03;;;;;;;;;;10444805;28;20035;-91
2021/10/14 00:11:13;;;;;;;5.88;2.58;;;;;;;;;;10462459;28;20348;-91
2021/10/14 00:16:13;;;;;;;5.37;2.50;;;;;;;;;;10463520;28;20036;-88
2021/10/14 00:21:14;;;;;;;4.77;2.13;;;;;;;;;;10444707;28;20025;-92
2021/10/14 00:26:14;;;;;;;6.27;2.30;;;;;;;;;;10460691;28;20281;-94
2021/10/14 00:31:14;;;;;;;3.63;2.17;;;;;;;;;;10461832;28;20485;-93
2021/10/14 00:36:15;;;;;;;5.23;2.47;;;;;;;;;;10460450;28;20320;-92
2021/10/14 00:41:16;;;;;;;4.20;2.75;;;;;;;;;;10462478;28;20029;-91
2021/10/14 00:46:17;;;;;;;3.47;2.13;;;;;;;;;;10464633;28;20056;-90
2021/10/14 00:51:17;;;;;;;3.38;2.10;;;;;;;;;;10463021;28;20029;-91
2021/10/14 00:56:18;;;;;;;2.60;2.20;;;;;;;;;;10463674;28;20044;-90
2021/10/14 01:01:18;;;;;;;4.57;1.95;;;;;;;;;;10461132;28;20594;-91
2021/10/14 01:06:19;;;;;;;4.03;2.80;;;;;;;;;;10460464;28;20040;-90
2021/10/14 01:11:20;;;;;;;6.03;2.33;;;;;;;;;;10458667;28;20414;-89
2021/10/14 01:16:20;;;;;;;4.43;1.92;;;;;;;;;;10442965;28;20079;-91
2021/10/14 01:21:21;;;;;;;3.43;1.90;;;;;;;;;;10460183;28;20068;-90
2021/10/14 01:26:21;;;;;;;5.50;2.53;;;;;;;;;;10431313;28;20025;-88
2021/10/14 01:31:26;;;;;;;5.13;2.60;;;;;;;;;;10459594;28;20277;-88
2021/10/14 01:36:27;;;;;;;3.70;2.15;;;;;;;;;;10459471;28;20028;-88
2021/10/14 01:41:27;;;;;;;8.63;2.42;;;;;;;;;;10459408;28;20483;-88
2021/10/14 01:46:27;;;;;;;5.30;1.93;;;;;;;;;;10459846;28;20052;-88
2021/10/14 01:51:28;;;;;;;5.87;2.23;;;;;;;;;;10458791;28;20114;-88
2021/10/14 01:56:28;;;;;;;3.73;1.90;;;;;;;;;;10459109;28;20036;-89
2021/10/14 02:01:28;;;;;;;4.43;2.00;;;;;;;;;;10457955;28;20285;-86
2021/10/14 02:06:29;;;;;;;3.57;1.83;;;;;;;;;;10458587;28;20825;-88
2021/10/14 02:11:30;;;;;;;5.23;2.27;;;;;;;;;;10458413;28;20447;-88
2021/10/14 02:16:31;;;;;;;5.18;1.95;;;;;;;;;;10458877;28;20086;-88
2021/10/14 02:21:31;;;;;;;3.60;1.90;;;;;;;;;;10457198;28;20349;-87
2021/10/14 02:26:32;;;;;;;4.95;1.90;;;;;;;;;;10457914;28;20327;-88
2021/10/14 02:31:32;;;;;;;3.42;1.80;;;;;;;;;;10457467;28;20132;-88
2021/10/14 02:36:32;;;;;;;4.67;1.77;;;;;;;;;;10457590;28;20076;-87
2021/10/14 02:41:33;;;;;;;2.28;1.73;;;;;;;;;;10439152;28;20033;-87
2021/10/14 02:46:33;;;;;;;3.33;1.77;;;;;;;;;;10457708;28;20049;-87
2021/10/14 02:51:34;;;;;;;3.57;2.10;;;;;;;;;;10456557;28;20041;-92
2021/10/14 02:56:34;;;;;;;3.23;1.83;;;;;;;;;;10456917;28;20120;-94
2021/10/14 03:01:34;;;;;;;2.23;1.80;;;;;;;;;;10457060;28;20270;-94
2021/10/14 03:06:35;;;;;;;2.20;1.67;;;;;;;;;;10456474;28;20112;-93
2021/10/14 03:11:35;;;;;;;2.33;1.90;;;;;;;;;;10456716;28;20728;-91
2021/10/14 03:16:35;;;;;;;3.67;1.97;;;;;;;;;;10456466;28;20386;-91
2021/10/14 03:21:36;;;;;;;3.57;1.80;;;;;;;;;;10456220;28;20037;-92
2021/10/14 03:26:36;;;;;;;2.63;1.77;;;;;;;;;;10455976;28;20436;-92
2021/10/14 03:31:36;;;;;;;2.37;1.90;;;;;;;;;;10457350;28;20474;-92
2021/10/14 03:36:37;;;;;;;4.80;2.07;;;;;;;;;;10463349;28;20456;-93
2021/10/14 03:41:37;;;;;;;5.20;2.00;;;;;;;;;;10464246;28;20459;-91
2021/10/14 03:46:37;;;;;;;4.90;1.83;;;;;;;;;;10464542;28;20321;-92
2021/10/14 03:51:38;;;;;;;2.80;1.60;;;;;;;;;;10463347;28;20319;-91
2021/10/14 03:56:38;;;;;;;2.83;1.70;;;;;;;;;;10463416;28;20068;-90
2021/10/14 04:01:38;;;;;;;3.13;1.90;;;;;;;;;;10463296;28;20348;-90
2021/10/14 04:06:39;;;;;;;2.73;1.60;;;;;;;;;;10462625;28;20478;-89
2021/10/14 04:11:39;;;;;;;2.77;1.80;;;;;;;;;;10463167;28;20150;-90
2021/10/14 04:16:39;;;;;;;3.63;1.90;;;;;;;;;;10462738;28;20021;-90
2021/10/14 04:21:40;;;;;;;2.00;1.60;;;;;;;;;;10464616;28;20120;-90
2021/10/14 04:26:41;;;;;;;3.83;1.75;;;;;;;;;;10464514;28;20052;-90
2021/10/14 04:31:41;;;;;;;5.47;1.60;;;;;;;;;;10463218;28;20383;-90
2021/10/14 04:36:42;;;;;;;3.07;1.53;;;;;;;;;;10461656;28;20083;-88
2021/10/14 04:41:44;;;;;;;6.43;1.63;;;;;;;;;;10444498;28;20067;-90
2021/10/14 04:46:44;;;;;;;1.55;1.45;;;;;;;;;;10462171;28;20067;-90
2021/10/14 04:51:45;;;;;;;1.70;1.60;;;;;;;;;;10462076;28;20106;-88
2021/10/14 04:56:45;;;;;;;1.98;1.20;;;;;;;;;;10460856;28;20490;-90
2021/10/14 05:01:46;;;;;;;3.80;1.50;;;;;;;;;;10460575;28;20025;-89
2021/10/14 05:06:46;;;;;;;3.35;3.05;;;;;;;;;;10460164;28;20391;-92
2021/10/14 05:11:47;;;;;;;4.03;3.30;;;;;;;;;;10461085;28;20115;-88
2021/10/14 05:16:47;;;;;;;8.10;7.50;;;;;;;;;;10460580;28;20418;-87
2021/10/14 05:21:48;;;;;;;7.70;7.20;;;;;;;;;;10459603;28;20029;-89
2021/10/14 05:26:48;;;;;;;6.90;6.40;;;;;;;;;;10461348;28;20116;-87
2021/10/14 05:31:49;;;;;;;3.93;2.60;;;;;;;;;;10460343;28;20078;-83
2021/10/14 05:36:49;;;;;;;3.38;2.50;;;;;;;;;;10459765;28;20117;-85
2021/10/14 05:41:50;;;;;;;2.97;2.53;;;;;;;;;;10459775;28;20463;-88
2021/10/14 05:46:50;;;;;;;2.60;1.80;;;;;;;;;;10459341;28;20494;-88
2021/10/14 05:51:50;;;;;;;7.95;2.00;;;;;;;;;;10458501;28;20423;-88
2021/10/14 05:56:51;;;;;;;2.60;2.10;;;;;;;;;;10457551;28;20464;-88
2021/10/14 06:01:51;;;;;;;2.20;1.90;;;;;;;;;;10457434;28;20039;-89
2021/10/14 06:06:52;;;;;;;19.60;2.30;;;;;;;;;;10457380;28;20120;-86
2021/10/14 06:11:52;;;;;;;5.13;1.67;;;;;;;;;;10447875;28;20037;-91
2021/10/14 06:16:52;;;;;;;18.67;2.60;;;;;;;;;;10439211;28;20044;-88
2021/10/14 06:21:53;;;;;;;7.43;2.47;;;;;;;;;;10456131;28;20282;-88
2021/10/14 06:26:53;;;;;;;12.50;2.80;;;;;;;;;;10443573;28;20036;-86
2021/10/14 06:31:54;;;;;;;9.40;2.43;;;;;;;;;;10428210;28;20067;-88
2021/10/14 06:36:54;;;;;;;5.72;2.38;;;;;;;;;;10436647;28;20357;-88
2021/10/14 06:41:55;;;;;;;10.67;2.13;;;;;;;;;;10431280;28;20029;-88
2021/10/14 06:46:55;;;;;;;6.78;2.10;;;;;;;;;;10444532;28;20361;-85
2021/10/14 06:51:56;;;;;;;11.48;2.47;;;;;;;;;;10456522;28;20041;-86
2021/10/14 06:56:56;;;;;;;6.53;2.15;;;;;;;;;;10459944;28;20059;-85
2021/10/14 07:01:57;;;;;;;5.47;2.63;;;;;;;;;;10447012;28;20456;-86
2021/10/14 07:06:58;;;;;;;3.15;1.70;;;;;;;;;;10456355;28;20056;-87
2021/10/14 07:12:02;;;;;;;4.27;2.30;;;;;;;;;;10447114;28;20485;-86
2021/10/14 07:17:04;;;;;;;9.48;2.20;;;;;;;;;;10445881;28;20473;-86
2021/10/14 07:22:05;;;;;;;3.92;2.08;;;;;;;;;;10431419;28;20363;-86
2021/10/14 07:27:07;;;;;;;9.10;2.10;;;;;;;;;;10444861;28;20364;-86
2021/10/14 07:32:08;;;;;;;5.70;2.20;;;;;;;;;;10447125;28;20037;-84
2021/10/14 07:37:08;;;;;;;4.07;2.08;;;;;;;;;;10441752;28;20391;-84
2021/10/14 07:42:09;;;;;;;5.00;1.92;;;;;;;;;;10451439;28;20029;-87
2021/10/14 07:47:09;;;;;;;7.33;2.10;;;;;;;;;;10426225;23;20140;-85
2021/10/14 07:52:09;;;;;;;7.93;2.10;;;;;;;;;;10420257;28;20025;-85
2021/10/14 07:57:10;;;;;;;6.07;2.00;;;;;;;;;;10419434;28;20289;-85
2021/10/14 08:02:12;;;;;;;5.30;1.80;;;;;;;;;;10424236;28;20021;-85
2021/10/14 08:07:12;;;;;;;7.55;2.58;;;;;;;;;;10408581;28;20360;-86
2021/10/14 08:12:12;;;;;;;9.40;2.37;;;;;;;;;;10415268;28;20037;-86
2021/10/14 08:17:13;;;;;;;7.40;2.37;;;;;;;;;;10421602;28;20108;-86
2021/10/14 08:22:13;;;;;;;4.57;2.17;;;;;;;;;;10422480;28;20033;-85
2021/10/14 08:27:14;;;;;;;5.10;1.93;;;;;;;;;;10416158;28;20101;-86
2021/10/14 08:32:14;;;;;;;6.87;2.60;;;;;;;;;;10423832;28;20022;-88
2021/10/14 08:37:20;;;;;;;5.82;2.10;;;;;;;;;;10438254;28;20033;-87
2021/10/14 08:42:21;;;;;;;6.97;2.05;;;;;;;;;;10446986;28;20036;-88
2021/10/14 08:47:22;;;;;;;7.90;2.40;;;;;;;;;;10444082;28;20417;-88
2021/10/14 08:52:22;;;;;;;5.68;2.58;;;;;;;;;;10437370;28;20455;-87
2021/10/14 08:57:23;;;;;;;2.90;1.90;;;;;;;;;;10437359;28;20037;-87
2021/10/14 09:02:24;;;;;;;4.13;2.00;;;;;;;;;;10442300;28;20367;-87
2021/10/14 09:07:29;;;;;;;2.72;1.83;;;;;;;;;;10446141;28;20545;-88
2021/10/14 09:12:37;;;;;;;7.53;2.17;;;;;;;;;;10442629;28;20375;-88
2021/10/14 09:17:37;;;;;;;3.90;1.77;;;;;;;;;;10442872;28;20029;-88
2021/10/14 09:22:58;;;;;;;4.88;1.95;;;;;;;;;;10439693;28;20288;-87
2021/10/14 09:28:08;;;;;;;7.93;1.98;;;;;;;;;;10444158;28;20055;-88
2021/10/14 09:33:46;;;;;;;5.80;1.77;;;;;;;;;;10432356;28;20044;-89
2021/10/14 09:39:02;;;;;;;2.83;1.90;;;;;;;;;;10436348;28;20490;-88
2021/10/14 09:44:06;;;;;;;4.55;1.75;;;;;;;;;;10461209;28;20044;-88
2021/10/14 09:49:12;;;;;;;3.67;2.10;;;;;;;;;;10456788;28;20054;-89
2021/10/14 09:54:13;;;;;;;3.15;1.90;;;;;;;;;;10448640;28;20121;-89
2021/10/14 09:59:13;;;;;;;4.47;2.00;;;;;;;;;;10433164;28;20116;-89
2021/10/14 10:04:14;;;;;;;5.10;2.42;;;;;;;;;;10452178;28;20116;-88
2021/10/14 10:09:17;;;;;;;3.75;1.85;;;;;;;;;;10416324;28;20102;-88
2021/10/14 10:14:21;;;;;;;6.55;2.00;;;;;;;;;;10458099;28;20036;-87
2021/10/14 10:19:50;;;;;;;4.68;1.85;;;;;;;;;;10440386;28;20071;-86
2021/10/14 10:24:50;;;;;;;5.55;1.88;;;;;;;;;;10432598;28;20421;-85
2021/10/14 10:29:58;;;;;;;4.03;1.80;;;;;;;;;;10445763;28;20048;-86
2021/10/14 10:35:03;;;;;;;2.92;1.80;;;;;;;;;;10443841;28;20436;-86
2021/10/14 10:40:32;;;;;;;5.45;1.73;;;;;;;;;;10435251;28;20055;-86
2021/10/14 10:45:44;;;;;;;5.63;1.80;;;;;;;;;;10434918;28;20053;-85
2021/10/14 10:50:50;;;;;;;4.03;1.98;;;;;;;;;;10433355;28;20494;-86
2021/10/14 10:55:59;;;;;;;3.72;2.10;;;;;;;;;;10437627;28;20056;-86
2021/10/14 11:01:00;;;;;;;3.17;1.95;;;;;;;;;;10422020;28;20168;-85
2021/10/14 11:06:06;;;;;;;5.45;1.92;;;;;;;;;;10417308;28;20057;-86
2021/10/14 11:11:11;;;;;;;4.13;2.63;;;;;;;;;;10419752;28;20429;-88
2021/10/14 11:16:12;;;;;;;4.78;2.85;;;;;;;;;;10421057;28;20037;-86
2021/10/14 11:21:15;;;;;;;4.47;3.10;;;;;;;;;;10407486;28;20049;-86
2021/10/14 11:26:39;;;;;;;5.40;2.92;;;;;;;;;;10410322;28;20120;-86
2021/10/14 11:31:54;;;;;;;5.57;2.55;;;;;;;;;;10423685;28;20035;-86
2021/10/14 11:37:03;;;;;;;3.30;2.47;;;;;;;;;;10414598;28;20478;-86
2021/10/14 11:42:05;;;;;;;5.25;2.85;;;;;;;;;;10398437;28;20353;-86
2021/10/14 11:47:08;;;;;;;3.97;2.20;;;;;;;;;;10431026;28;20068;-86
2021/10/14 11:52:11;;;;;;;4.68;2.30;;;;;;;;;;10422839;28;20091;-86
2021/10/14 11:57:12;;;;;;;3.80;2.30;;;;;;;;;;10440696;28;20467;-86
2021/10/14 12:02:19;;;;;;;5.50;2.53;;;;;;;;;;10441929;28;20033;-86
2021/10/14 12:07:22;;;;;;;3.55;2.35;;;;;;;;;;10428357;28;20048;-86
2021/10/14 12:12:30;;;;;;;3.00;2.25;;;;;;;;;;10439723;28;20483;-86
2021/10/14 12:17:41;;;;;;;2.90;2.08;;;;;;;;;;10435679;28;20039;-86
2021/10/14 12:22:43;;;;;;;5.40;2.33;;;;;;;;;;10437597;28;20030;-87
2021/10/14 12:27:55;;;;;;;3.20;2.30;;;;;;;;;;10428566;28;20036;-87
2021/10/14 12:33:11;;;;;;;3.83;2.40;;;;;;;;;;10435120;28;20498;-87
2021/10/14 12:38:14;;;;;;;3.47;2.47;;;;;;;;;;10431210;28;20048;-86
2021/10/14 12:43:30;;;;;;;4.13;2.40;;;;;;;;;;10428386;28;20077;-86
2021/10/14 12:53:59;;;;;;;6.75;2.38;;;;;;;;;;10439090;28;20037;-89
2021/10/14 12:59:06;;;;;;;2.10;1.90;;;;;;;;;;10441147;28;20080;-88
2021/10/14 13:04:08;;;;;;;4.53;2.20;;;;;;;;;;10434339;28;20124;-87
2021/10/14 13:09:08;;;;;;;3.90;2.00;;;;;;;;;;10443179;28;20057;-88
2021/10/14 13:14:11;;;;;;;4.50;2.28;;;;;;;;;;10454962;28;20079;-88
2021/10/14 13:19:13;;;;;;;10.27;2.28;;;;;;;;;;10431128;28;20092;-87
2021/10/14 13:24:15;;;;;;;3.10;1.80;;;;;;;;;;10427108;28;20113;-85
2021/10/14 13:29:16;;;;;;;4.93;2.50;;;;;;;;;;10458821;28;20116;-85
2021/10/14 13:34:17;;;;;;;15.18;2.85;;;;;;;;;;10443570;28;20104;-82
2021/10/14 13:39:17;;;;;;;11.45;2.63;;;;;;;;;;10432730;28;20057;-84
2021/10/14 13:44:20;;;;;;;14.75;3.13;;;;;;;;;;10424088;28;20084;-82
2021/10/14 13:49:22;;;;;;;37.10;3.67;;;;;;;;;;10427186;28;20034;-79
2021/10/14 13:54:23;;;;;;;42.33;3.78;;;;;;;;;;10416864;28;20033;-81
2021/10/14 13:59:23;;;;;;;17.43;3.03;;;;;;;;;;10434153;28;20037;-82
2021/10/14 14:04:23;;;;;;;13.40;2.20;;;;;;;;;;10433613;28;20040;-82
2021/10/14 14:09:24;;;;;;;9.77;2.50;;;;;;;;;;10431447;28;20036;-82
2021/10/14 14:14:24;;;;;;;11.30;2.30;;;;;;;;;;10431194;28;20026;-82
2021/10/14 14:19:25;;;;;;;13.73;2.77;;;;;;;;;;10441239;28;20025;-81
2021/10/14 14:24:25;;;;;;;10.18;2.72;;;;;;;;;;10421409;28;20555;-85
2021/10/14 14:29:26;;;;;;;4.47;2.40;;;;;;;;;;10435755;28;20055;-85
2021/10/14 14:34:26;;;;;;;15.23;2.37;;;;;;;;;;10430125;28;20123;-93
2021/10/14 14:39:27;;;;;;;7.55;2.25;;;;;;;;;;10424117;28;20090;-91
2021/10/14 14:44:27;;;;;;;8.00;2.30;;;;;;;;;;10406835;28;20491;-92
2021/10/14 14:49:28;;;;;;;5.60;2.20;;;;;;;;;;10414014;28;20029;-88
2021/10/14 14:54:28;;;;;;;6.43;1.98;;;;;;;;;;10420714;28;20283;-91
2021/10/14 14:59:29;;;;;;;5.57;1.77;;;;;;;;;;10416496;28;20074;-91
2021/10/14 15:04:29;;;;;;;8.30;2.00;;;;;;;;;;10417959;28;20045;-90
2021/10/14 15:09:29;;;;;;;3.73;1.97;;;;;;;;;;10420185;28;20034;-89
2021/10/14 15:14:31;;;;;;;3.93;1.80;;;;;;;;;;10419288;28;20262;-89
2021/10/14 15:19:31;;;;;;;3.22;1.70;;;;;;;;;;10426236;28;20060;-89
2021/10/14 15:24:32;;;;;;;3.07;1.97;;;;;;;;;;10429196;28;20479;-90
2021/10/14 15:29:32;;;;;;;5.97;1.90;;;;;;;;;;10417649;28;20045;-90
2021/10/14 15:34:34;;;;;;;3.77;1.77;;;;;;;;;;10419220;28;20037;-90
2021/10/14 15:39:38;;;;;;;4.78;1.73;;;;;;;;;;10456269;28;20108;-90
2021/10/14 15:44:38;;;;;;;4.88;1.65;;;;;;;;;;10434065;28;20042;-90
2021/10/14 15:49:38;;;;;;;6.93;2.40;;;;;;;;;;10437697;28;20022;-90
2021/10/14 15:54:39;;;;;;;2.17;1.70;;;;;;;;;;10430752;28;20056;-90
2021/10/14 15:59:39;;;;;;;4.37;2.00;;;;;;;;;;10437168;28;20033;-90
2021/10/14 16:04:40;;;;;;;6.93;2.07;;;;;;;;;;10424105;28;20264;-87
2021/10/14 16:09:40;;;;;;;4.27;1.90;;;;;;;;;;10414926;28;20266;-87
2021/10/14 16:14:40;;;;;;;2.60;1.60;;;;;;;;;;10414552;28;20033;-88
2021/10/14 16:19:41;;;;;;;7.10;1.80;;;;;;;;;;10419677;28;20091;-89
2021/10/14 16:24:41;;;;;;;2.63;1.83;;;;;;;;;;10416073;28;20032;-87
2021/10/14 16:29:43;;;;;;;7.93;2.17;;;;;;;;;;10421138;28;20044;-88
2021/10/14 16:34:43;;;;;;;2.08;1.50;;;;;;;;;;10417334;28;20042;-87
2021/10/14 16:39:45;;;;;;;7.03;1.90;;;;;;;;;;10458276;28;20040;-88
2021/10/14 16:44:45;;;;;;;3.17;1.73;;;;;;;;;;10440959;28;20038;-82
2021/10/14 16:49:46;;;;;;;8.03;2.13;;;;;;;;;;10445832;28;20035;-82
2021/10/14 16:54:47;;;;;;;5.78;1.70;;;;;;;;;;10460941;28;20286;-82
2021/10/14 16:59:47;;;;;;;4.07;2.03;;;;;;;;;;10439588;28;20063;-82
2021/10/14 17:04:47;;;;;;;7.07;2.20;;;;;;;;;;10449671;28;20526;-82
2021/10/14 17:09:50;;;;;;;7.17;1.80;;;;;;;;;;10444537;28;20032;-81
2021/10/14 17:14:51;;;;;;;6.00;1.60;;;;;;;;;;10443344;28;20100;-83
2021/10/14 17:20:04;;;;;;;2.55;1.70;;;;;;;;;;10429601;28;20032;-83
2021/10/14 17:51:00;;;;;;;3.42;1.90;;;;;;;;;;10441552;28;20045;-88
2021/10/14 17:56:01;;;;;;;3.17;1.70;;;;;;;;;;10429653;28;20025;-94
2021/10/14 18:01:03;;;;;;;3.60;1.83;;;;;;;;;;10414125;28;20270;-93
2021/10/14 18:06:14;;;;;;;2.63;1.75;;;;;;;;;;10403559;28;20354;-86
2021/10/14 18:43:04;;;;;;;15.25;5.10;;;;;;;;;;10442141;28;20053;-88
2021/10/14 18:48:05;;;;;;;13.70;6.03;;;;;;;;;;10457683;28;20110;-88
2021/10/14 18:53:06;;;;;;;10.82;5.90;;;;;;;;;;10435093;28;20025;-88
2021/10/14 18:58:10;;;;;;;15.57;6.18;;;;;;;;;;10428787;28;20469;-87
2021/10/14 19:03:17;;;;;;;9.15;5.53;;;;;;;;;;10428034;28;20032;-87
2021/10/14 19:14:05;;;;;;;12.73;5.82;;;;;;;;;;10410240;28;20041;-88
2021/10/14 20:22:39;;;;;;;23.48;5.40;;;;;;;;;;10420352;28;20037;-83
2021/10/14 20:27:40;;;;;;;27.05;5.85;;;;;;;;;;10421275;28;20029;-83
2021/10/14 20:32:41;;;;;;;16.67;5.80;;;;;;;;;;10420436;28;20399;-83
2021/10/14 20:37:43;;;;;;;22.52;5.43;;;;;;;;;;10420677;28;20117;-83
2021/10/14 20:42:43;;;;;;;17.13;5.80;;;;;;;;;;10418828;28;20033;-83
2021/10/14 20:47:44;;;;;;;17.60;5.60;;;;;;;;;;10379519;28;20464;-83
2021/10/14 20:52:57;;;;;;;24.10;6.43;;;;;;;;;;10378996;28;20483;-84
2021/10/14 21:03:16;;;;;;;15.02;6.07;;;;;;;;;;10378859;28;20480;-87
2021/10/14 21:08:17;;;;;;;18.33;5.43;;;;;;;;;;10378326;28;20065;-86
2021/10/14 21:13:17;;;;;;;24.13;5.28;;;;;;;;;;10375375;28;20788;-87
2021/10/14 21:18:17;;;;;;;16.13;5.83;;;;;;;;;;10377675;28;20460;-86
2021/10/14 21:23:18;;;;;;;14.70;5.27;;;;;;;;;;10376644;28;20291;-87
2021/10/14 21:28:24;;;;;;;25.77;5.43;;;;;;;;;;10377344;28;20022;-86
2021/10/14 21:38:43;;;;;;;19.23;5.53;;;;;;;;;;10377604;28;20038;-86
2021/10/14 21:43:44;;;;;;;12.63;5.40;;;;;;;;;;10382423;28;20057;-86
2021/10/14 21:48:44;;;;;;;14.20;5.50;;;;;;;;;;10416936;28;20527;-88
2021/10/14 21:53:44;;;;;;;14.67;5.83;;;;;;;;;;10404034;28;20290;-84
2021/10/14 21:58:45;;;;;;;26.73;5.63;;;;;;;;;;10418298;28;20037;-84
2021/10/14 22:03:45;;;;;;;13.50;6.00;;;;;;;;;;10415808;28;20282;-86
2021/10/14 22:08:46;;;;;;;16.77;5.77;;;;;;;;;;10409881;28;20273;-92
2021/10/14 22:13:46;;;;;;;18.17;5.20;;;;;;;;;;10417415;28;20116;-92
2021/10/14 22:18:46;;;;;;;18.00;5.83;;;;;;;;;;10416984;28;20842;-92
2021/10/14 22:23:47;;;;;;;9.20;4.90;;;;;;;;;;10414820;28;20056;-92
2021/10/14 22:28:47;;;;;;;15.17;6.20;;;;;;;;;;10414338;28;20479;-92
2021/10/14 22:33:48;;;;;;;8.88;5.25;;;;;;;;;;10414644;28;20128;-90
2021/10/14 22:38:49;;;;;;;21.97;7.47;;;;;;;;;;10415119;28;20117;-89
2021/10/14 22:43:49;;;;;;;17.03;6.37;;;;;;;;;;10415646;28;20046;-89
2021/10/14 22:48:49;;;;;;;18.03;6.80;;;;;;;;;;10398914;28;20096;-90
2021/10/14 22:53:50;;;;;;;16.48;6.20;;;;;;;;;;10414822;28;20112;-88
2021/10/14 22:58:51;;;;;;;13.27;5.35;;;;;;;;;;10415132;28;20439;-89
2021/10/14 23:03:51;;;;;;;16.85;5.65;;;;;;;;;;10415227;28;20467;-89
2021/10/14 23:08:51;;;;;;;21.20;6.10;;;;;;;;;;10415402;28;20037;-90
2021/10/14 23:13:52;;;;;;;17.30;6.07;;;;;;;;;;10415295;28;20430;-90
2021/10/14 23:18:52;;;;;;;25.03;6.00;;;;;;;;;;10414820;28;20112;-88
2021/10/14 23:23:52;;;;;;;13.40;5.50;;;;;;;;;;10417023;28;20042;-88
2021/10/14 23:28:53;;;;;;;11.00;5.33;;;;;;;;;;10416559;28;20017;-87
2021/10/14 23:33:53;;;;;;;15.07;5.60;;;;;;;;;;10415494;28;20072;-88
2021/10/14 23:38:53;;;;;;;16.03;6.50;;;;;;;;;;10414469;28;20038;-88
2021/10/14 23:43:54;;;;;;;15.70;5.43;;;;;;;;;;10414149;28;20100;-87
2021/10/14 23:48:54;;;;;;;15.10;5.40;;;;;;;;;;10415872;28;20124;-87
2021/10/14 23:53:55;;;;;;;15.03;5.57;;;;;;;;;;10421787;28;20040;-87
2021/10/14 23:58:55;;;;;;;15.63;5.53;;;;;;;;;;10422150;28;20637;-87
